KAMG/AMG METAR and TAF weather

Enter ICAO airport designator
Station Type Date Time Source
KAMG METAR 2020/01/21 17:53 UTC NOAA

KAMG 211753Z AUTO 36015G19KT 10SM CLR 06/M09 A3035 RMK AO2 SLP278 T00561094 10056 21022 58020


Station Type Date Time Source
KAMG Decoded METAR 2020/01/21 17:53 UTC NOAA

ALMA BACON COUNTY AIRPORT, GA, United States (KAMG) 31-32N 82-30W 59M
Jan 21, 2020 - 12:53 PM EST / 2020.01.21 1753 UTC
Wind: from the N (360 degrees) at 17 MPH (15 KT) gusting to 22 MPH (19 KT):0
Visibility: 10 mile(s):0
Sky conditions: clear
Temperature: 42.1 F (5.6 C)
Dew Point: 15.1 F (-9.4 C)
Relative Humidity: 33%
Pressure (altimeter): 30.35 in. Hg (1027 hPa)
Pressure tendency: 0.06 inches (2.0 hPa) lower than three hours ago
ob: KAMG 211753Z AUTO 36015G19KT 10SM CLR 06/M09 A3035 RMK AO2 SLP278 T00561094 10056 21022 58020
cycle: 18

Station Type Date Time Source
KAMG TAF UTC NOAA

Error!

Example: see airport list